sensor_id;sensor_type;location;lat;lon;timestamp;temperature;humidity
7576;DHT22;3829;50.798;4.358;2022-08-03T00:01:19;21.70;99.90
7576;DHT22;3829;50.798;4.358;2022-08-03T00:03:45;21.70;99.90
7576;DHT22;3829;50.798;4.358;2022-08-03T00:06:11;21.70;99.90
7576;DHT22;3829;50.798;4.358;2022-08-03T00:08:36;21.70;99.90
7576;DHT22;3829;50.798;4.358;2022-08-03T00:11:02;21.70;99.90
7576;DHT22;3829;50.798;4.358;2022-08-03T00:13:28;21.50;99.90
7576;DHT22;3829;50.798;4.358;2022-08-03T00:15:54;21.50;99.90
7576;DHT22;3829;50.798;4.358;2022-08-03T00:18:20;21.50;99.90
7576;DHT22;3829;50.798;4.358;2022-08-03T00:20:46;21.40;99.90
7576;DHT22;3829;50.798;4.358;2022-08-03T00:23:11;21.40;99.90
7576;DHT22;3829;50.798;4.358;2022-08-03T00:25:37;21.30;99.90
7576;DHT22;3829;50.798;4.358;2022-08-03T00:28:04;21.30;99.90
7576;DHT22;3829;50.798;4.358;2022-08-03T00:30:31;21.20;99.90
7576;DHT22;3829;50.798;4.358;2022-08-03T00:32:57;21.20;99.90
7576;DHT22;3829;50.798;4.358;2022-08-03T00:35:23;21.20;99.90
7576;DHT22;3829;50.798;4.358;2022-08-03T00:37:49;21.10;99.90
7576;DHT22;3829;50.798;4.358;2022-08-03T00:40:16;21.00;99.90
7576;DHT22;3829;50.798;4.358;2022-08-03T00:42:58;21.00;99.90
7576;DHT22;3829;50.798;4.358;2022-08-03T00:45:29;21.00;99.90
7576;DHT22;3829;50.798;4.358;2022-08-03T00:47:55;21.00;99.90
7576;DHT22;3829;50.798;4.358;2022-08-03T00:50:22;21.00;99.90
7576;DHT22;3829;50.798;4.358;2022-08-03T00:52:49;20.90;99.90
7576;DHT22;3829;50.798;4.358;2022-08-03T00:55:16;20.90;99.90
7576;DHT22;3829;50.798;4.358;2022-08-03T00:57:42;20.80;99.90
7576;DHT22;3829;50.798;4.358;2022-08-03T01:00:10;20.80;99.90
7576;DHT22;3829;50.798;4.358;2022-08-03T01:02:37;20.80;99.90
7576;DHT22;3829;50.798;4.358;2022-08-03T01:05:03;20.80;99.90
7576;DHT22;3829;50.798;4.358;2022-08-03T01:07:40;20.80;99.90
7576;DHT22;3829;50.798;4.358;2022-08-03T01:16:25;20.60;99.90
7576;DHT22;3829;50.798;4.358;2022-08-03T01:18:56;20.50;99.90
7576;DHT22;3829;50.798;4.358;2022-08-03T01:21:31;20.50;99.90
7576;DHT22;3829;50.798;4.358;2022-08-03T01:24:07;20.40;99.90
7576;DHT22;3829;50.798;4.358;2022-08-03T01:32:07;20.30;99.90
7576;DHT22;3829;50.798;4.358;2022-08-03T01:34:53;20.30;99.90
7576;DHT22;3829;50.798;4.358;2022-08-03T01:37:25;20.40;99.90
7576;DHT22;3829;50.798;4.358;2022-08-03T01:39:54;20.30;99.90
7576;DHT22;3829;50.798;4.358;2022-08-03T01:42:23;20.20;99.90
7576;DHT22;3829;50.798;4.358;2022-08-03T01:44:51;20.30;99.90
7576;DHT22;3829;50.798;4.358;2022-08-03T01:47:19;20.30;99.90
7576;DHT22;3829;50.798;4.358;2022-08-03T01:49:47;20.40;99.90
7576;DHT22;3829;50.798;4.358;2022-08-03T01:52:17;20.40;99.90
7576;DHT22;3829;50.798;4.358;2022-08-03T01:54:45;20.40;99.90
7576;DHT22;3829;50.798;4.358;2022-08-03T01:57:13;20.40;99.90
7576;DHT22;3829;50.798;4.358;2022-08-03T01:59:41;20.40;99.90
7576;DHT22;3829;50.798;4.358;2022-08-03T02:02:07;20.40;99.90
7576;DHT22;3829;50.798;4.358;2022-08-03T02:04:37;20.50;99.90
7576;DHT22;3829;50.798;4.358;2022-08-03T02:07:04;20.50;99.90
7576;DHT22;3829;50.798;4.358;2022-08-03T02:09:31;20.40;99.90
7576;DHT22;3829;50.798;4.358;2022-08-03T02:11:57;20.30;99.90
7576;DHT22;3829;50.798;4.358;2022-08-03T02:14:25;20.20;99.90
7576;DHT22;3829;50.798;4.358;2022-08-03T02:16:53;20.10;99.90
7576;DHT22;3829;50.798;4.358;2022-08-03T02:19:19;20.30;99.90
7576;DHT22;3829;50.798;4.358;2022-08-03T02:21:46;20.30;99.90
7576;DHT22;3829;50.798;4.358;2022-08-03T02:24:13;20.30;99.90
7576;DHT22;3829;50.798;4.358;2022-08-03T02:26:40;20.30;99.90
7576;DHT22;3829;50.798;4.358;2022-08-03T02:29:10;20.30;99.90
7576;DHT22;3829;50.798;4.358;2022-08-03T02:31:37;20.30;99.90
7576;DHT22;3829;50.798;4.358;2022-08-03T02:34:08;20.20;99.90
7576;DHT22;3829;50.798;4.358;2022-08-03T02:36:38;20.10;99.90
7576;DHT22;3829;50.798;4.358;2022-08-03T02:39:06;20.10;99.90
7576;DHT22;3829;50.798;4.358;2022-08-03T02:41:50;20.00;99.90
7576;DHT22;3829;50.798;4.358;2022-08-03T02:44:19;19.90;99.90
7576;DHT22;3829;50.798;4.358;2022-08-03T02:46:47;19.90;99.90
7576;DHT22;3829;50.798;4.358;2022-08-03T02:49:15;19.90;99.90
7576;DHT22;3829;50.798;4.358;2022-08-03T02:51:44;19.90;99.90
7576;DHT22;3829;50.798;4.358;2022-08-03T02:54:15;19.90;99.90
7576;DHT22;3829;50.798;4.358;2022-08-03T02:56:43;19.80;99.90
7576;DHT22;3829;50.798;4.358;2022-08-03T02:59:09;19.70;99.90
7576;DHT22;3829;50.798;4.358;2022-08-03T03:01:37;19.70;99.90
7576;DHT22;3829;50.798;4.358;2022-08-03T03:04:04;19.70;99.90
7576;DHT22;3829;50.798;4.358;2022-08-03T03:06:30;19.60;99.90
7576;DHT22;3829;50.798;4.358;2022-08-03T03:08:57;19.50;99.90
7576;DHT22;3829;50.798;4.358;2022-08-03T03:11:24;19.50;99.90
7576;DHT22;3829;50.798;4.358;2022-08-03T03:13:51;19.50;99.90
7576;DHT22;3829;50.798;4.358;2022-08-03T03:16:17;19.50;99.90
7576;DHT22;3829;50.798;4.358;2022-08-03T03:18:44;19.50;99.90
7576;DHT22;3829;50.798;4.358;2022-08-03T03:21:11;19.40;99.90
7576;DHT22;3829;50.798;4.358;2022-08-03T03:23:39;19.50;99.90
7576;DHT22;3829;50.798;4.358;2022-08-03T03:26:06;19.50;99.90
7576;DHT22;3829;50.798;4.358;2022-08-03T03:28:32;19.50;99.90
7576;DHT22;3829;50.798;4.358;2022-08-03T03:30:58;19.40;99.90
7576;DHT22;3829;50.798;4.358;2022-08-03T03:33:25;19.40;99.90
7576;DHT22;3829;50.798;4.358;2022-08-03T03:35:51;19.40;99.90
7576;DHT22;3829;50.798;4.358;2022-08-03T03:38:18;19.40;99.90
7576;DHT22;3829;50.798;4.358;2022-08-03T03:40:44;19.40;99.90
7576;DHT22;3829;50.798;4.358;2022-08-03T03:43:11;19.30;99.90
7576;DHT22;3829;50.798;4.358;2022-08-03T03:45:37;19.40;99.90
7576;DHT22;3829;50.798;4.358;2022-08-03T03:48:05;19.30;99.90
7576;DHT22;3829;50.798;4.358;2022-08-03T03:50:32;19.40;99.90
7576;DHT22;3829;50.798;4.358;2022-08-03T03:52:58;19.40;99.90
7576;DHT22;3829;50.798;4.358;2022-08-03T03:55:24;19.40;99.90
7576;DHT22;3829;50.798;4.358;2022-08-03T03:57:49;19.40;99.90
7576;DHT22;3829;50.798;4.358;2022-08-03T04:00:17;19.50;99.90
7576;DHT22;3829;50.798;4.358;2022-08-03T04:02:43;19.40;99.90
7576;DHT22;3829;50.798;4.358;2022-08-03T04:05:09;19.40;99.90
7576;DHT22;3829;50.798;4.358;2022-08-03T04:08:17;19.40;99.90
7576;DHT22;3829;50.798;4.358;2022-08-03T04:13:50;19.30;99.90
7576;DHT22;3829;50.798;4.358;2022-08-03T04:16:19;19.20;99.90
7576;DHT22;3829;50.798;4.358;2022-08-03T04:18:48;19.10;99.90
7576;DHT22;3829;50.798;4.358;2022-08-03T04:21:18;19.10;99.90
7576;DHT22;3829;50.798;4.358;2022-08-03T04:23:49;19.10;99.90
7576;DHT22;3829;50.798;4.358;2022-08-03T04:26:19;19.10;99.90
7576;DHT22;3829;50.798;4.358;2022-08-03T04:28:46;19.10;99.90
7576;DHT22;3829;50.798;4.358;2022-08-03T04:31:14;19.00;99.90
7576;DHT22;3829;50.798;4.358;2022-08-03T04:33:43;19.00;99.90
7576;DHT22;3829;50.798;4.358;2022-08-03T04:36:11;19.00;99.90
7576;DHT22;3829;50.798;4.358;2022-08-03T04:38:52;19.10;99.90
7576;DHT22;3829;50.798;4.358;2022-08-03T04:41:20;19.30;99.90
7576;DHT22;3829;50.798;4.358;2022-08-03T04:43:48;19.30;99.90
7576;DHT22;3829;50.798;4.358;2022-08-03T04:46:16;19.40;99.90
7576;DHT22;3829;50.798;4.358;2022-08-03T04:48:43;19.40;99.90
7576;DHT22;3829;50.798;4.358;2022-08-03T04:51:10;19.50;99.90
7576;DHT22;3829;50.798;4.358;2022-08-03T04:53:37;19.60;99.90
7576;DHT22;3829;50.798;4.358;2022-08-03T04:56:03;19.60;99.90
7576;DHT22;3829;50.798;4.358;2022-08-03T04:58:30;19.60;99.90
7576;DHT22;3829;50.798;4.358;2022-08-03T05:00:55;19.70;99.90
7576;DHT22;3829;50.798;4.358;2022-08-03T05:03:21;19.70;99.90
7576;DHT22;3829;50.798;4.358;2022-08-03T05:05:47;19.80;99.90
7576;DHT22;3829;50.798;4.358;2022-08-03T05:08:12;19.90;99.90
7576;DHT22;3829;50.798;4.358;2022-08-03T05:10:38;19.90;99.90
7576;DHT22;3829;50.798;4.358;2022-08-03T05:13:03;19.90;99.90
7576;DHT22;3829;50.798;4.358;2022-08-03T05:15:29;19.90;99.90
7576;DHT22;3829;50.798;4.358;2022-08-03T05:17:54;20.00;99.90
7576;DHT22;3829;50.798;4.358;2022-08-03T05:20:20;20.10;99.90
7576;DHT22;3829;50.798;4.358;2022-08-03T05:22:46;20.00;99.90
7576;DHT22;3829;50.798;4.358;2022-08-03T05:25:11;20.20;99.90
7576;DHT22;3829;50.798;4.358;2022-08-03T05:27:37;20.30;99.90
7576;DHT22;3829;50.798;4.358;2022-08-03T05:30:03;20.30;99.90
7576;DHT22;3829;50.798;4.358;2022-08-03T05:32:29;20.30;99.90
7576;DHT22;3829;50.798;4.358;2022-08-03T05:34:54;20.30;99.90
7576;DHT22;3829;50.798;4.358;2022-08-03T05:37:20;20.40;99.90
7576;DHT22;3829;50.798;4.358;2022-08-03T05:39:46;20.40;99.90
7576;DHT22;3829;50.798;4.358;2022-08-03T05:42:14;20.60;99.90
7576;DHT22;3829;50.798;4.358;2022-08-03T05:44:39;20.60;99.90
7576;DHT22;3829;50.798;4.358;2022-08-03T05:47:06;20.70;99.90
7576;DHT22;3829;50.798;4.358;2022-08-03T05:49:32;20.70;99.90
7576;DHT22;3829;50.798;4.358;2022-08-03T05:51:57;20.90;99.90
7576;DHT22;3829;50.798;4.358;2022-08-03T05:54:23;20.90;99.90
7576;DHT22;3829;50.798;4.358;2022-08-03T05:56:49;21.00;99.90
7576;DHT22;3829;50.798;4.358;2022-08-03T05:59:14;21.00;99.90
7576;DHT22;3829;50.798;4.358;2022-08-03T06:01:40;21.10;99.90
7576;DHT22;3829;50.798;4.358;2022-08-03T06:04:06;21.20;99.90
7576;DHT22;3829;50.798;4.358;2022-08-03T06:06:32;21.20;99.90
7576;DHT22;3829;50.798;4.358;2022-08-03T06:08:58;21.20;99.90
7576;DHT22;3829;50.798;4.358;2022-08-03T06:11:23;21.20;99.90
7576;DHT22;3829;50.798;4.358;2022-08-03T06:13:49;21.30;99.90
7576;DHT22;3829;50.798;4.358;2022-08-03T06:16:15;21.40;99.90
7576;DHT22;3829;50.798;4.358;2022-08-03T06:18:40;21.50;99.90
7576;DHT22;3829;50.798;4.358;2022-08-03T06:21:06;21.60;99.90
7576;DHT22;3829;50.798;4.358;2022-08-03T06:23:32;21.60;99.90
7576;DHT22;3829;50.798;4.358;2022-08-03T06:25:57;21.70;99.90
7576;DHT22;3829;50.798;4.358;2022-08-03T06:28:23;21.90;99.90
7576;DHT22;3829;50.798;4.358;2022-08-03T06:30:49;22.00;99.90
7576;DHT22;3829;50.798;4.358;2022-08-03T06:33:14;22.10;99.90
7576;DHT22;3829;50.798;4.358;2022-08-03T06:35:41;22.30;99.90
7576;DHT22;3829;50.798;4.358;2022-08-03T06:38:06;22.30;99.90
7576;DHT22;3829;50.798;4.358;2022-08-03T06:40:34;22.40;99.90
7576;DHT22;3829;50.798;4.358;2022-08-03T06:43:04;22.50;99.90
7576;DHT22;3829;50.798;4.358;2022-08-03T06:45:30;22.50;99.90
7576;DHT22;3829;50.798;4.358;2022-08-03T06:48:14;22.60;99.90
7576;DHT22;3829;50.798;4.358;2022-08-03T06:50:41;22.70;99.90
7576;DHT22;3829;50.798;4.358;2022-08-03T06:53:07;22.70;99.90
7576;DHT22;3829;50.798;4.358;2022-08-03T06:55:36;22.90;99.90
7576;DHT22;3829;50.798;4.358;2022-08-03T06:58:02;23.00;99.90
7576;DHT22;3829;50.798;4.358;2022-08-03T07:00:28;23.00;99.90
7576;DHT22;3829;50.798;4.358;2022-08-03T07:02:55;23.10;99.90
7576;DHT22;3829;50.798;4.358;2022-08-03T07:05:21;23.20;99.90
7576;DHT22;3829;50.798;4.358;2022-08-03T07:07:47;23.20;99.90
7576;DHT22;3829;50.798;4.358;2022-08-03T07:10:13;23.30;99.90
7576;DHT22;3829;50.798;4.358;2022-08-03T07:12:39;23.40;99.90
7576;DHT22;3829;50.798;4.358;2022-08-03T07:15:06;23.50;99.90
7576;DHT22;3829;50.798;4.358;2022-08-03T07:17:34;23.50;99.90
7576;DHT22;3829;50.798;4.358;2022-08-03T07:20:02;23.70;99.90
7576;DHT22;3829;50.798;4.358;2022-08-03T07:22:29;23.70;99.90
7576;DHT22;3829;50.798;4.358;2022-08-03T07:24:54;23.80;99.90
7576;DHT22;3829;50.798;4.358;2022-08-03T07:27:21;23.90;99.90
7576;DHT22;3829;50.798;4.358;2022-08-03T07:29:46;24.00;99.90
7576;DHT22;3829;50.798;4.358;2022-08-03T07:32:12;24.10;99.90
7576;DHT22;3829;50.798;4.358;2022-08-03T07:34:37;24.30;99.90
7576;DHT22;3829;50.798;4.358;2022-08-03T07:37:03;24.40;99.90
7576;DHT22;3829;50.798;4.358;2022-08-03T07:39:28;24.60;99.90
7576;DHT22;3829;50.798;4.358;2022-08-03T07:41:54;24.70;99.90
7576;DHT22;3829;50.798;4.358;2022-08-03T07:44:20;24.80;99.90
7576;DHT22;3829;50.798;4.358;2022-08-03T07:46:46;24.90;99.90
7576;DHT22;3829;50.798;4.358;2022-08-03T07:49:12;25.00;99.90
7576;DHT22;3829;50.798;4.358;2022-08-03T07:51:38;25.20;99.90
7576;DHT22;3829;50.798;4.358;2022-08-03T07:54:03;25.30;99.90
7576;DHT22;3829;50.798;4.358;2022-08-03T07:56:29;25.20;99.90
7576;DHT22;3829;50.798;4.358;2022-08-03T07:58:55;25.10;99.90
7576;DHT22;3829;50.798;4.358;2022-08-03T08:01:21;25.10;99.90
7576;DHT22;3829;50.798;4.358;2022-08-03T08:03:48;25.20;99.90
7576;DHT22;3829;50.798;4.358;2022-08-03T08:06:14;25.20;99.90
7576;DHT22;3829;50.798;4.358;2022-08-03T08:08:40;25.50;99.90
7576;DHT22;3829;50.798;4.358;2022-08-03T08:11:06;25.60;99.90
7576;DHT22;3829;50.798;4.358;2022-08-03T08:13:32;25.60;99.90
7576;DHT22;3829;50.798;4.358;2022-08-03T08:15:58;25.70;99.90
7576;DHT22;3829;50.798;4.358;2022-08-03T08:18:23;25.90;99.90
7576;DHT22;3829;50.798;4.358;2022-08-03T08:20:50;25.90;99.90
7576;DHT22;3829;50.798;4.358;2022-08-03T08:23:16;26.00;99.90
7576;DHT22;3829;50.798;4.358;2022-08-03T08:25:48;26.20;99.90
7576;DHT22;3829;50.798;4.358;2022-08-03T08:28:16;26.20;99.90
7576;DHT22;3829;50.798;4.358;2022-08-03T08:30:42;26.00;99.90
7576;DHT22;3829;50.798;4.358;2022-08-03T08:33:08;26.20;99.90
7576;DHT22;3829;50.798;4.358;2022-08-03T08:35:33;26.20;99.90
7576;DHT22;3829;50.798;4.358;2022-08-03T08:38:00;26.20;99.90
7576;DHT22;3829;50.798;4.358;2022-08-03T08:40:26;26.30;99.90
7576;DHT22;3829;50.798;4.358;2022-08-03T08:42:52;26.40;99.90
7576;DHT22;3829;50.798;4.358;2022-08-03T08:45:18;26.60;99.90
7576;DHT22;3829;50.798;4.358;2022-08-03T08:47:47;26.60;99.90
7576;DHT22;3829;50.798;4.358;2022-08-03T08:50:17;26.90;99.90
7576;DHT22;3829;50.798;4.358;2022-08-03T08:52:46;27.10;99.90
7576;DHT22;3829;50.798;4.358;2022-08-03T08:55:14;27.20;99.90
7576;DHT22;3829;50.798;4.358;2022-08-03T08:57:57;27.50;99.90
7576;DHT22;3829;50.798;4.358;2022-08-03T09:00:23;27.70;99.90
7576;DHT22;3829;50.798;4.358;2022-08-03T09:02:49;27.90;99.90
7576;DHT22;3829;50.798;4.358;2022-08-03T09:05:19;27.80;99.90
7576;DHT22;3829;50.798;4.358;2022-08-03T09:07:46;27.80;99.90
7576;DHT22;3829;50.798;4.358;2022-08-03T09:10:14;27.80;99.90
7576;DHT22;3829;50.798;4.358;2022-08-03T09:12:46;27.70;99.90
7576;DHT22;3829;50.798;4.358;2022-08-03T09:15:31;27.90;99.90
7576;DHT22;3829;50.798;4.358;2022-08-03T09:18:02;27.90;99.90
7576;DHT22;3829;50.798;4.358;2022-08-03T09:20:33;28.10;99.90
7576;DHT22;3829;50.798;4.358;2022-08-03T09:23:06;28.20;99.90
7576;DHT22;3829;50.798;4.358;2022-08-03T09:25:38;28.30;99.90
7576;DHT22;3829;50.798;4.358;2022-08-03T09:28:17;28.00;99.90
7576;DHT22;3829;50.798;4.358;2022-08-03T09:30:56;27.90;99.90
7576;DHT22;3829;50.798;4.358;2022-08-03T09:33:22;28.10;99.90
7576;DHT22;3829;50.798;4.358;2022-08-03T09:35:48;28.20;99.90
7576;DHT22;3829;50.798;4.358;2022-08-03T09:40:42;28.40;99.90
7576;DHT22;3829;50.798;4.358;2022-08-03T09:43:09;28.30;99.90
7576;DHT22;3829;50.798;4.358;2022-08-03T09:45:36;28.40;99.90
7576;DHT22;3829;50.798;4.358;2022-08-03T09:50:57;28.80;99.90
7576;DHT22;3829;50.798;4.358;2022-08-03T09:53:24;28.90;99.90
7576;DHT22;3829;50.798;4.358;2022-08-03T09:55:53;29.00;99.90
7576;DHT22;3829;50.798;4.358;2022-08-03T09:58:21;29.10;99.90
7576;DHT22;3829;50.798;4.358;2022-08-03T10:00:56;29.20;99.90
7576;DHT22;3829;50.798;4.358;2022-08-03T10:03:24;29.30;99.90
7576;DHT22;3829;50.798;4.358;2022-08-03T10:05:50;29.30;99.90
7576;DHT22;3829;50.798;4.358;2022-08-03T10:08:18;29.40;99.90
7576;DHT22;3829;50.798;4.358;2022-08-03T10:10:46;29.30;99.90
7576;DHT22;3829;50.798;4.358;2022-08-03T10:13:16;29.40;99.90
7576;DHT22;3829;50.798;4.358;2022-08-03T10:15:43;29.30;99.90
7576;DHT22;3829;50.798;4.358;2022-08-03T10:18:09;29.40;99.90
7576;DHT22;3829;50.798;4.358;2022-08-03T10:20:38;29.60;99.90
7576;DHT22;3829;50.798;4.358;2022-08-03T10:23:07;29.50;99.90
7576;DHT22;3829;50.798;4.358;2022-08-03T10:25:36;29.60;99.90
7576;DHT22;3829;50.798;4.358;2022-08-03T10:28:03;29.70;99.90
7576;DHT22;3829;50.798;4.358;2022-08-03T10:30:31;29.70;99.90
7576;DHT22;3829;50.798;4.358;2022-08-03T10:33:16;29.90;99.90
7576;DHT22;3829;50.798;4.358;2022-08-03T10:35:43;30.10;99.90
7576;DHT22;3829;50.798;4.358;2022-08-03T10:38:22;30.40;99.90
7576;DHT22;3829;50.798;4.358;2022-08-03T10:40:53;30.50;99.90
7576;DHT22;3829;50.798;4.358;2022-08-03T10:43:55;30.30;99.90
7576;DHT22;3829;50.798;4.358;2022-08-03T10:46:23;30.40;99.90
7576;DHT22;3829;50.798;4.358;2022-08-03T10:48:51;30.60;99.90
7576;DHT22;3829;50.798;4.358;2022-08-03T10:51:18;30.80;99.90
7576;DHT22;3829;50.798;4.358;2022-08-03T10:53:45;30.70;99.90
7576;DHT22;3829;50.798;4.358;2022-08-03T10:59:15;30.60;99.90
7576;DHT22;3829;50.798;4.358;2022-08-03T11:01:53;30.50;99.90
7576;DHT22;3829;50.798;4.358;2022-08-03T11:04:20;30.50;99.90
7576;DHT22;3829;50.798;4.358;2022-08-03T11:06:47;30.70;99.90
7576;DHT22;3829;50.798;4.358;2022-08-03T11:09:13;30.70;99.90
7576;DHT22;3829;50.798;4.358;2022-08-03T11:11:41;30.80;99.90
7576;DHT22;3829;50.798;4.358;2022-08-03T11:14:10;30.80;99.90
7576;DHT22;3829;50.798;4.358;2022-08-03T11:16:41;30.60;99.90
7576;DHT22;3829;50.798;4.358;2022-08-03T11:19:14;30.70;99.90
7576;DHT22;3829;50.798;4.358;2022-08-03T11:27:17;30.90;99.90
7576;DHT22;3829;50.798;4.358;2022-08-03T11:30:04;31.00;99.90
7576;DHT22;3829;50.798;4.358;2022-08-03T11:35:07;31.20;99.90
7576;DHT22;3829;50.798;4.358;2022-08-03T11:37:33;31.00;99.90
7576;DHT22;3829;50.798;4.358;2022-08-03T11:40:00;31.20;99.90
7576;DHT22;3829;50.798;4.358;2022-08-03T11:44:57;31.50;99.90
7576;DHT22;3829;50.798;4.358;2022-08-03T11:47:25;31.40;99.90
7576;DHT22;3829;50.798;4.358;2022-08-03T11:49:56;31.50;99.90
7576;DHT22;3829;50.798;4.358;2022-08-03T11:52:24;31.80;99.90
7576;DHT22;3829;50.798;4.358;2022-08-03T11:54:51;31.60;99.90
7576;DHT22;3829;50.798;4.358;2022-08-03T11:57:31;31.80;99.90
7576;DHT22;3829;50.798;4.358;2022-08-03T11:59:57;31.70;99.90
7576;DHT22;3829;50.798;4.358;2022-08-03T12:02:23;32.00;99.90
7576;DHT22;3829;50.798;4.358;2022-08-03T12:04:57;32.00;99.90
7576;DHT22;3829;50.798;4.358;2022-08-03T12:07:25;31.90;99.90
7576;DHT22;3829;50.798;4.358;2022-08-03T12:10:12;32.00;99.90
7576;DHT22;3829;50.798;4.358;2022-08-03T12:12:39;32.00;99.90
7576;DHT22;3829;50.798;4.358;2022-08-03T12:15:06;32.00;99.90
7576;DHT22;3829;50.798;4.358;2022-08-03T12:19:59;32.00;99.90
7576;DHT22;3829;50.798;4.358;2022-08-03T12:24:57;32.20;99.90
7576;DHT22;3829;50.798;4.358;2022-08-03T12:27:24;32.20;99.90
7576;DHT22;3829;50.798;4.358;2022-08-03T12:29:55;32.20;99.90
7576;DHT22;3829;50.798;4.358;2022-08-03T12:32:22;32.00;99.90
7576;DHT22;3829;50.798;4.358;2022-08-03T12:34:48;31.90;99.90
7576;DHT22;3829;50.798;4.358;2022-08-03T12:37:21;32.20;99.90
7576;DHT22;3829;50.798;4.358;2022-08-03T12:39:54;32.30;99.90
7576;DHT22;3829;50.798;4.358;2022-08-03T12:42:20;32.40;99.90
7576;DHT22;3829;50.798;4.358;2022-08-03T12:44:46;32.50;99.90
7576;DHT22;3829;50.798;4.358;2022-08-03T12:47:14;32.70;99.90
7576;DHT22;3829;50.798;4.358;2022-08-03T12:49:50;32.90;99.90
7576;DHT22;3829;50.798;4.358;2022-08-03T12:52:20;32.80;99.90
7576;DHT22;3829;50.798;4.358;2022-08-03T12:54:57;33.00;99.90
7576;DHT22;3829;50.798;4.358;2022-08-03T12:57:23;33.30;99.90
7576;DHT22;3829;50.798;4.358;2022-08-03T12:59:49;33.50;99.90
7576;DHT22;3829;50.798;4.358;2022-08-03T13:02:17;33.50;99.90
7576;DHT22;3829;50.798;4.358;2022-08-03T13:04:44;33.20;99.90
7576;DHT22;3829;50.798;4.358;2022-08-03T13:07:11;32.70;99.90
7576;DHT22;3829;50.798;4.358;2022-08-03T13:09:47;33.00;99.90
7576;DHT22;3829;50.798;4.358;2022-08-03T13:12:14;33.10;99.90
7576;DHT22;3829;50.798;4.358;2022-08-03T13:14:41;33.50;99.90
7576;DHT22;3829;50.798;4.358;2022-08-03T13:17:07;33.90;99.90
7576;DHT22;3829;50.798;4.358;2022-08-03T13:19:34;33.80;99.90
7576;DHT22;3829;50.798;4.358;2022-08-03T13:22:17;33.50;99.90
7576;DHT22;3829;50.798;4.358;2022-08-03T13:24:44;33.50;99.60
7576;DHT22;3829;50.798;4.358;2022-08-03T13:27:11;33.30;99.90
7576;DHT22;3829;50.798;4.358;2022-08-03T13:29:37;33.80;99.90
7576;DHT22;3829;50.798;4.358;2022-08-03T13:32:04;34.30;99.90
7576;DHT22;3829;50.798;4.358;2022-08-03T13:34:30;34.60;99.30
7576;DHT22;3829;50.798;4.358;2022-08-03T13:36:56;35.20;98.70
7576;DHT22;3829;50.798;4.358;2022-08-03T13:39:22;35.60;98.50
7576;DHT22;3829;50.798;4.358;2022-08-03T13:41:48;36.00;98.40
7576;DHT22;3829;50.798;4.358;2022-08-03T13:44:13;36.10;97.00
7576;DHT22;3829;50.798;4.358;2022-08-03T13:46:39;36.90;96.80
7576;DHT22;3829;50.798;4.358;2022-08-03T13:49:05;37.90;96.50
7576;DHT22;3829;50.798;4.358;2022-08-03T13:51:31;37.80;95.00
7576;DHT22;3829;50.798;4.358;2022-08-03T13:53:57;38.10;94.50
7576;DHT22;3829;50.798;4.358;2022-08-03T13:56:27;38.50;94.80
7576;DHT22;3829;50.798;4.358;2022-08-03T13:58:54;38.40;94.00
7576;DHT22;3829;50.798;4.358;2022-08-03T14:01:20;37.30;94.00
7576;DHT22;3829;50.798;4.358;2022-08-03T14:03:45;36.90;94.20
7576;DHT22;3829;50.798;4.358;2022-08-03T14:06:21;36.70;94.30
7576;DHT22;3829;50.798;4.358;2022-08-03T14:08:48;36.40;94.60
7576;DHT22;3829;50.798;4.358;2022-08-03T14:11:14;35.90;94.60
7576;DHT22;3829;50.798;4.358;2022-08-03T14:13:40;35.90;95.40
7576;DHT22;3829;50.798;4.358;2022-08-03T14:16:06;36.10;95.10
7576;DHT22;3829;50.798;4.358;2022-08-03T14:18:32;35.90;94.80
7576;DHT22;3829;50.798;4.358;2022-08-03T14:20:58;36.60;95.10
7576;DHT22;3829;50.798;4.358;2022-08-03T14:23:24;38.00;94.00
7576;DHT22;3829;50.798;4.358;2022-08-03T14:25:50;37.60;93.20
7576;DHT22;3829;50.798;4.358;2022-08-03T14:28:16;37.20;93.80
7576;DHT22;3829;50.798;4.358;2022-08-03T14:30:42;38.10;93.10
7576;DHT22;3829;50.798;4.358;2022-08-03T14:33:08;39.00;92.70
7576;DHT22;3829;50.798;4.358;2022-08-03T14:35:33;39.60;92.30
7576;DHT22;3829;50.798;4.358;2022-08-03T14:37:59;39.50;92.10
7576;DHT22;3829;50.798;4.358;2022-08-03T14:40:25;38.40;92.00
7576;DHT22;3829;50.798;4.358;2022-08-03T14:42:50;37.90;92.10
7576;DHT22;3829;50.798;4.358;2022-08-03T14:45:16;37.30;92.20
7576;DHT22;3829;50.798;4.358;2022-08-03T14:47:41;37.30;92.10
7576;DHT22;3829;50.798;4.358;2022-08-03T14:50:07;38.50;92.20
7576;DHT22;3829;50.798;4.358;2022-08-03T14:52:33;39.60;92.10
7576;DHT22;3829;50.798;4.358;2022-08-03T14:54:59;40.50;90.90
7576;DHT22;3829;50.798;4.358;2022-08-03T14:57:25;42.10;90.40
7576;DHT22;3829;50.798;4.358;2022-08-03T14:59:52;42.20;89.40
7576;DHT22;3829;50.798;4.358;2022-08-03T15:02:18;42.20;87.90
7576;DHT22;3829;50.798;4.358;2022-08-03T15:04:43;42.20;87.20
7576;DHT22;3829;50.798;4.358;2022-08-03T15:07:09;41.30;86.80
7576;DHT22;3829;50.798;4.358;2022-08-03T15:09:35;41.50;87.90
7576;DHT22;3829;50.798;4.358;2022-08-03T15:12:02;41.90;86.60
7576;DHT22;3829;50.798;4.358;2022-08-03T15:14:28;40.80;87.10
7576;DHT22;3829;50.798;4.358;2022-08-03T15:16:53;40.40;86.00
7576;DHT22;3829;50.798;4.358;2022-08-03T15:19:19;40.90;85.90
7576;DHT22;3829;50.798;4.358;2022-08-03T15:21:44;40.40;87.70
7576;DHT22;3829;50.798;4.358;2022-08-03T15:24:10;39.80;86.00
7576;DHT22;3829;50.798;4.358;2022-08-03T15:26:36;40.50;85.40
7576;DHT22;3829;50.798;4.358;2022-08-03T15:29:01;41.40;84.90
7576;DHT22;3829;50.798;4.358;2022-08-03T15:31:28;41.70;83.80
7576;DHT22;3829;50.798;4.358;2022-08-03T15:33:53;40.40;84.80
7576;DHT22;3829;50.798;4.358;2022-08-03T15:36:19;40.40;85.00
7576;DHT22;3829;50.798;4.358;2022-08-03T15:38:45;40.40;84.60
7576;DHT22;3829;50.798;4.358;2022-08-03T15:41:12;40.60;84.40
7576;DHT22;3829;50.798;4.358;2022-08-03T15:43:38;40.50;85.20
7576;DHT22;3829;50.798;4.358;2022-08-03T15:46:04;41.30;83.90
7576;DHT22;3829;50.798;4.358;2022-08-03T15:48:29;42.00;83.50
7576;DHT22;3829;50.798;4.358;2022-08-03T15:50:56;41.60;83.40
7576;DHT22;3829;50.798;4.358;2022-08-03T15:53:22;42.80;82.30
7576;DHT22;3829;50.798;4.358;2022-08-03T15:55:48;42.90;81.60
7576;DHT22;3829;50.798;4.358;2022-08-03T15:58:13;43.00;81.30
7576;DHT22;3829;50.798;4.358;2022-08-03T16:00:40;43.40;80.80
7576;DHT22;3829;50.798;4.358;2022-08-03T16:03:07;43.20;80.90
7576;DHT22;3829;50.798;4.358;2022-08-03T16:05:33;43.70;80.40
7576;DHT22;3829;50.798;4.358;2022-08-03T16:07:59;43.00;80.20
7576;DHT22;3829;50.798;4.358;2022-08-03T16:10:25;43.10;80.30
7576;DHT22;3829;50.798;4.358;2022-08-03T16:12:53;43.40;79.70
7576;DHT22;3829;50.798;4.358;2022-08-03T16:15:18;42.80;80.00
7576;DHT22;3829;50.798;4.358;2022-08-03T16:17:44;43.40;80.30
7576;DHT22;3829;50.798;4.358;2022-08-03T16:20:10;42.10;81.60
7576;DHT22;3829;50.798;4.358;2022-08-03T16:22:45;42.10;81.40
7576;DHT22;3829;50.798;4.358;2022-08-03T16:25:12;43.10;80.30
7576;DHT22;3829;50.798;4.358;2022-08-03T16:27:38;43.50;79.80
7576;DHT22;3829;50.798;4.358;2022-08-03T16:30:05;43.70;78.80
7576;DHT22;3829;50.798;4.358;2022-08-03T16:32:31;43.90;79.40
7576;DHT22;3829;50.798;4.358;2022-08-03T16:34:57;42.70;78.60
7576;DHT22;3829;50.798;4.358;2022-08-03T16:37:23;42.00;78.90
7576;DHT22;3829;50.798;4.358;2022-08-03T16:39:48;41.50;79.00
7576;DHT22;3829;50.798;4.358;2022-08-03T16:42:14;41.30;79.70
7576;DHT22;3829;50.798;4.358;2022-08-03T16:44:39;40.80;80.40